Nearby METAR Reports

 

KMLI - Moline/Quad City, Illinois, USA
Distance from station: ENE 4mi, 7km
Updated: 06/17/2018 9:52pm
Clear
Clear
 Wind from SSE
Wind: SSE 8 mph , 13 km/h
Temperature: 82°F , 28°C
Heat Index: 87°F , 31°C
Dew Point: 73°F , 23°C
Humidity: 74%
Barometer: 29.93 inHg , 1013.5 hPa
Clouds: Clear
Visibility: 10 miles , 16 km
2018/06/18 02:52 KMLI 180252Z 16007KT 10SM CLR 28/23 A2993 RMK AO2 SLP129 T02830233 53006
KDVN - Davenport/Quad C, Iowa, USA
Distance from station: N 14mi, 22km
Updated: 06/17/2018 9:52pm
Clear
Clear
 Wind from S
Wind: S 9 mph , 15 km/h
Temperature: 82°F , 28°C
Heat Index: 86°F , 30°C
Dew Point: 72°F , 22°C
Humidity: 70%
Barometer: 29.95 inHg , 1014.2 hPa
Clouds: Clear
Visibility: 10 miles , 16 km
2018/06/18 02:52 KDVN 180252Z AUTO 19008KT 10SM CLR 28/22 A2995 RMK AO2 SLP132 T02830217 53006
 
KMUT - Muscatine, Iowa, USA
Distance from station: W 29mi, 47km
Updated: 06/17/2018 10:15pm

 
2018/06/18 03:15 KMUT 180315Z AUTO RMK AO2 PWINO
KCWI - Clinton Muni, Iowa, USA
Distance from station: NNE 31mi, 50km
Updated: 06/17/2018 9:56pm
Clear
Clear
 Wind from S
Wind: S 8 mph , 13 km/h
Barometer: 29.94 inHg , 1013.9 hPa
Clouds: Clear
Visibility: 10 miles , 16 km
2018/06/18 02:56 KCWI 180256Z AUTO 18007KT 10SM CLR A2994 RMK AO2 SLPNO 53007 FZRANO $
 
KGBG - Galesburg, Illinois, USA
Distance from station: SSE 35mi, 56km
Updated: 06/17/2018 10:15pm
Clear
Clear
 Wind from E
Wind: E 6 mph , 9 km/h
Temperature: 79°F , 26°C
Dew Point: 72°F , 22°C
Humidity: 79%
Barometer: 29.98 inHg , 1015.2 hPa
Clouds: Clear
Visibility: 10 miles , 16 km
2018/06/18 03:15 KGBG 180315Z AUTO 10005KT 10SM CLR 26/22 A2998 RMK AO2 T02620221
KSFY - Savanna/Tritown, Illinois, USA
Distance from station: NNE 50mi, 80km
Updated: 06/17/2018 10:15pm
Clear
Clear
 Wind from SSE
Wind: SSE 6 mph , 9 km/h
Temperature: 79°F , 26°C
Dew Point: 73°F , 23°C
Humidity: 84%
Barometer: 29.94 inHg , 1013.9 hPa
Clouds: Clear
Visibility: 10 miles , 16 km
2018/06/18 03:15 KSFY 180315Z AUTO 16005KT 10SM CLR 26/23 A2994 RMK AO2